Time,TemperatureF,DewpointF,PressureIn,WindDirection,WindDirectionDegrees,WindSpeedMPH,WindSpeedGustMPH,Humidity,HourlyPrecipIn,Conditions,Clouds,dailyrainin,SolarRadiationWatts/m^2,SoftwareType,DateUTC
2013-09-26 00:01:00,53.0,52.0,-100.00,SW,214,0.0,2.0,95,0.00,,,0.00,0.000000,,2013-09-26 04:01:00,
2013-09-26 00:44:00,53.0,52.0,-100.00,SW,214,0.0,2.0,95,0.00,,,0.00,0.000000,,2013-09-26 04:44:00,
2013-09-26 00:54:00,53.0,52.0,-100.00,SW,214,0.0,2.0,95,0.00,,,0.00,0.000000,,2013-09-26 04:54:00,
2013-09-26 01:01:00,53.0,52.0,-100.00,NW,307,0.0,2.0,96,0.00,,,0.00,0.000000,,2013-09-26 05:01:00,
2013-09-26 01:23:00,53.0,52.0,-100.00,NW,307,0.0,2.0,96,0.00,,,0.00,0.000000,,2013-09-26 05:23:00,
2013-09-26 01:34:00,53.0,52.0,-100.00,NW,307,0.0,2.0,96,0.00,,,0.00,0.000000,,2013-09-26 05:34:00,
2013-09-26 01:43:00,53.0,52.0,-100.00,NW,307,0.0,2.0,96,0.00,,,0.00,0.000000,,2013-09-26 05:43:00,
2013-09-26 01:52:00,53.0,52.0,-100.00,NW,307,0.0,2.0,96,0.00,,,0.00,0.000000,,2013-09-26 05:52:00,
2013-09-26 02:01:00,54.0,52.0,-100.00,NE,53,0.0,4.0,94,0.00,,,0.00,0.000000,,2013-09-26 06:01:00,
2013-09-26 02:22:00,54.0,52.0,-100.00,NE,53,0.0,4.0,94,0.00,,,0.00,0.000000,,2013-09-26 06:22:00,
2013-09-26 02:33:00,54.0,52.0,-100.00,NE,53,0.0,4.0,94,0.00,,,0.00,0.000000,,2013-09-26 06:33:00,
2013-09-26 02:42:00,54.0,52.0,-100.00,NE,53,0.0,4.0,94,0.00,,,0.00,0.000000,,2013-09-26 06:42:00,
2013-09-26 02:54:00,54.0,52.0,-100.00,NE,53,0.0,4.0,94,0.00,,,0.00,0.000000,,2013-09-26 06:54:00,
2013-09-26 03:01:00,55.0,53.0,-100.00,East,86,0.0,4.0,94,0.00,,,0.00,0.000000,,2013-09-26 07:01:00,
2013-09-26 03:22:00,55.0,53.0,-100.00,East,86,0.0,4.0,94,0.00,,,0.00,0.000000,,2013-09-26 07:22:00,
2013-09-26 03:32:00,55.0,53.0,-100.00,East,86,0.0,4.0,94,0.00,,,0.00,0.000000,,2013-09-26 07:32:00,
2013-09-26 03:42:00,55.0,53.0,-100.00,East,86,0.0,4.0,94,0.00,,,0.00,0.000000,,2013-09-26 07:42:00,
2013-09-26 03:53:00,55.0,53.0,-100.00,East,86,0.0,4.0,94,0.00,,,0.00,0.000000,,2013-09-26 07:53:00,
2013-09-26 04:01:00,58.0,56.0,-100.00,ESE,102,1.0,4.0,92,0.00,,,0.00,0.000000,,2013-09-26 08:01:00,
2013-09-26 04:22:00,58.0,56.0,-100.00,ESE,102,1.0,4.0,92,0.00,,,0.00,0.000000,,2013-09-26 08:22:00,
2013-09-26 04:32:00,58.0,56.0,-100.00,ESE,102,1.0,4.0,92,0.00,,,0.00,0.000000,,2013-09-26 08:32:00,
2013-09-26 04:42:00,58.0,56.0,-100.00,ESE,102,1.0,4.0,92,0.00,,,0.00,0.000000,,2013-09-26 08:42:00,
2013-09-26 04:52:00,58.0,56.0,-100.00,ESE,102,1.0,4.0,92,0.00,,,0.00,0.000000,,2013-09-26 08:52:00,
2013-09-26 05:01:00,60.0,56.0,-100.00,ESE,122,2.0,6.0,87,0.00,,,0.00,0.000000,,2013-09-26 09:01:00,
2013-09-26 05:43:00,60.0,56.0,-100.00,ESE,122,2.0,6.0,87,0.00,,,0.00,0.000000,,2013-09-26 09:43:00,
2013-09-26 05:54:00,60.0,56.0,-100.00,ESE,122,2.0,6.0,87,0.00,,,0.00,0.000000,,2013-09-26 09:54:00,
2013-09-26 06:01:00,59.0,55.0,-100.00,ESE,112,1.0,6.0,87,0.00,,,0.00,0.000000,,2013-09-26 10:01:00,
2013-09-26 06:42:00,59.0,55.0,-100.00,ESE,112,1.0,6.0,87,0.00,,,0.00,0.000000,,2013-09-26 10:42:00,
2013-09-26 06:53:00,59.0,55.0,-100.00,ESE,112,1.0,6.0,87,0.00,,,0.00,0.000000,,2013-09-26 10:53:00,
2013-09-26 07:01:00,59.0,54.0,-100.00,ESE,110,1.0,6.0,84,0.00,,,0.00,0.000000,,2013-09-26 11:01:00,
2013-09-26 07:42:00,59.0,54.0,-100.00,ESE,110,1.0,6.0,84,0.00,,,0.00,0.000000,,2013-09-26 11:42:00,
2013-09-26 07:52:00,59.0,54.0,-100.00,ESE,110,1.0,6.0,84,0.00,,,0.00,0.000000,,2013-09-26 11:52:00,
2013-09-26 08:01:00,61.0,54.0,-100.00,ESE,104,1.0,5.0,79,0.00,,,0.00,21.000000,,2013-09-26 12:01:00,
2013-09-26 08:42:00,61.0,54.0,-100.00,ESE,104,1.0,5.0,79,0.00,,,0.00,21.000000,,2013-09-26 12:42:00,
2013-09-26 08:52:00,61.0,54.0,-100.00,ESE,104,1.0,5.0,79,0.00,,,0.00,21.000000,,2013-09-26 12:52:00,
2013-09-26 09:01:00,62.0,53.0,-100.00,ESE,105,3.0,10.0,73,0.00,,,0.00,47.000000,,2013-09-26 13:01:00,
2013-09-26 09:22:00,62.0,53.0,-100.00,ESE,105,3.0,10.0,73,0.00,,,0.00,47.000000,,2013-09-26 13:22:00,
2013-09-26 09:32:00,62.0,53.0,-100.00,ESE,105,3.0,10.0,73,0.00,,,0.00,47.000000,,2013-09-26 13:32:00,
2013-09-26 09:42:00,62.0,53.0,-100.00,ESE,105,3.0,10.0,73,0.00,,,0.00,47.000000,,2013-09-26 13:42:00,
2013-09-26 09:52:00,62.0,53.0,-100.00,ESE,105,3.0,10.0,73,0.00,,,0.00,47.000000,,2013-09-26 13:52:00,
2013-09-26 10:01:00,63.0,52.0,-100.00,East,91,2.0,6.0,67,0.00,,,0.00,141.000000,,2013-09-26 14:01:00,
2013-09-26 10:22:00,63.0,52.0,-100.00,East,91,2.0,6.0,67,0.00,,,0.00,141.000000,,2013-09-26 14:22:00,
2013-09-26 10:32:00,63.0,52.0,-100.00,East,91,2.0,6.0,67,0.00,,,0.00,141.000000,,2013-09-26 14:32:00,
2013-09-26 10:42:00,63.0,52.0,-100.00,East,91,2.0,6.0,67,0.00,,,0.00,141.000000,,2013-09-26 14:42:00,
2013-09-26 10:52:00,63.0,52.0,-100.00,East,91,2.0,6.0,67,0.00,,,0.00,141.000000,,2013-09-26 14:52:00,
2013-09-26 11:01:00,63.0,51.0,-100.00,East,96,2.0,8.0,65,0.00,,,0.00,121.000000,,2013-09-26 15:01:00,
2013-09-26 11:22:00,63.0,51.0,-100.00,East,96,2.0,8.0,65,0.00,,,0.00,121.000000,,2013-09-26 15:22:00,
2013-09-26 11:33:00,63.0,51.0,-100.00,East,96,2.0,8.0,65,0.00,,,0.00,121.000000,,2013-09-26 15:33:00,
2013-09-26 11:44:00,63.0,51.0,-100.00,East,96,2.0,8.0,65,0.00,,,0.00,121.000000,,2013-09-26 15:44:00,
2013-09-26 11:54:00,63.0,51.0,-100.00,East,96,2.0,8.0,65,0.00,,,0.00,121.000000,,2013-09-26 15:54:00,
2013-09-26 12:01:00,65.0,51.0,-100.00,ESE,112,2.0,9.0,61,0.00,,,0.00,145.000000,,2013-09-26 16:01:00,
2013-09-26 12:43:00,65.0,51.0,-100.00,ESE,112,2.0,9.0,61,0.00,,,0.00,145.000000,,2013-09-26 16:43:00,
2013-09-26 12:54:00,65.0,51.0,-100.00,ESE,112,2.0,9.0,61,0.00,,,0.00,145.000000,,2013-09-26 16:54:00,
2013-09-26 13:01:00,65.0,50.0,-100.00,NNE,30,1.0,8.0,59,0.00,,,0.00,165.000000,,2013-09-26 17:01:00,
2013-09-26 13:23:00,65.0,50.0,-100.00,NNE,30,1.0,8.0,59,0.00,,,0.00,165.000000,,2013-09-26 17:23:00,
2013-09-26 13:34:00,65.0,50.0,-100.00,NNE,30,1.0,8.0,59,0.00,,,0.00,165.000000,,2013-09-26 17:34:00,
2013-09-26 13:43:00,65.0,50.0,-100.00,NNE,30,1.0,8.0,59,0.00,,,0.00,165.000000,,2013-09-26 17:43:00,
2013-09-26 13:53:00,65.0,50.0,-100.00,NNE,30,1.0,8.0,59,0.00,,,0.00,165.000000,,2013-09-26 17:53:00,
2013-09-26 14:01:00,66.0,51.0,-100.00,ENE,67,2.0,7.0,58,0.00,,,0.00,149.000000,,2013-09-26 18:01:00,
2013-09-26 14:42:00,66.0,51.0,-100.00,ENE,67,2.0,7.0,58,0.00,,,0.00,149.000000,,2013-09-26 18:42:00,
2013-09-26 14:52:00,66.0,51.0,-100.00,ENE,67,2.0,7.0,58,0.00,,,0.00,149.000000,,2013-09-26 18:52:00,
2013-09-26 15:01:00,66.0,49.0,-100.00,NE,51,1.0,6.0,55,0.00,,,0.00,164.000000,,2013-09-26 19:01:00,
2013-09-26 15:44:00,66.0,49.0,-100.00,NE,51,1.0,6.0,55,0.00,,,0.00,164.000000,,2013-09-26 19:44:00,
2013-09-26 15:52:00,66.0,49.0,-100.00,NE,51,1.0,6.0,55,0.00,,,0.00,164.000000,,2013-09-26 19:52:00,
2013-09-26 16:01:00,68.0,50.0,-100.00,North,359,1.0,7.0,52,0.00,,,0.00,191.000000,,2013-09-26 20:01:00,
2013-09-26 16:43:00,68.0,50.0,-100.00,North,359,1.0,7.0,52,0.00,,,0.00,191.000000,,2013-09-26 20:43:00,
2013-09-26 16:52:00,68.0,50.0,-100.00,North,359,1.0,7.0,52,0.00,,,0.00,191.000000,,2013-09-26 20:52:00,
2013-09-26 17:01:00,67.0,49.0,-100.00,NE,52,1.0,6.0,52,0.00,,,0.00,161.000000,,2013-09-26 21:01:00,
2013-09-26 17:23:00,67.0,49.0,-100.00,NE,52,1.0,6.0,52,0.00,,,0.00,161.000000,,2013-09-26 21:23:00,
2013-09-26 17:34:00,67.0,49.0,-100.00,NE,52,1.0,6.0,52,0.00,,,0.00,161.000000,,2013-09-26 21:34:00,
2013-09-26 17:44:00,67.0,49.0,-100.00,NE,52,1.0,6.0,52,0.00,,,0.00,161.000000,,2013-09-26 21:44:00,
2013-09-26 17:54:00,67.0,49.0,-100.00,NE,52,1.0,6.0,52,0.00,,,0.00,161.000000,,2013-09-26 21:54:00,
2013-09-26 18:01:00,61.0,52.0,-100.00,SSW,200,0.0,5.0,72,0.00,,,0.00,24.000000,,2013-09-26 22:01:00,
2013-09-26 18:43:00,61.0,52.0,-100.00,SSW,200,0.0,5.0,72,0.00,,,0.00,24.000000,,2013-09-26 22:43:00,
2013-09-26 18:54:00,61.0,52.0,-100.00,SSW,200,0.0,5.0,72,0.00,,,0.00,24.000000,,2013-09-26 22:54:00,
2013-09-26 19:01:00,55.0,51.0,-100.00,WNW,282,0.0,2.0,86,0.00,,,0.00,3.000000,,2013-09-26 23:01:00,
2013-09-26 19:43:00,55.0,51.0,-100.00,WNW,282,0.0,2.0,86,0.00,,,0.00,3.000000,,2013-09-26 23:43:00,
2013-09-26 19:53:00,55.0,51.0,-100.00,WNW,282,0.0,2.0,86,0.00,,,0.00,3.000000,,2013-09-26 23:53:00,
2013-09-26 20:01:00,52.0,49.0,-100.00,WNW,286,0.0,0.0,91,0.00,,,0.00,0.000000,,2013-09-27 00:01:00,
2013-09-26 20:22:00,52.0,49.0,-100.00,WNW,286,0.0,0.0,91,0.00,,,0.00,0.000000,,2013-09-27 00:22:00,
2013-09-26 20:32:00,52.0,49.0,-100.00,WNW,286,0.0,0.0,91,0.00,,,0.00,0.000000,,2013-09-27 00:32:00,
2013-09-26 20:43:00,52.0,49.0,-100.00,WNW,286,0.0,0.0,91,0.00,,,0.00,0.000000,,2013-09-27 00:43:00,
2013-09-26 20:52:00,52.0,49.0,-100.00,WNW,286,0.0,0.0,91,0.00,,,0.00,0.000000,,2013-09-27 00:52:00,
2013-09-26 21:01:00,52.0,50.0,-100.00,NNW,338,0.0,0.0,93,0.00,,,0.00,0.000000,,2013-09-27 01:01:00,
2013-09-26 21:42:00,52.0,50.0,-100.00,NNW,338,0.0,0.0,93,0.00,,,0.00,0.000000,,2013-09-27 01:42:00,
2013-09-26 21:52:00,52.0,50.0,-100.00,NNW,338,0.0,0.0,93,0.00,,,0.00,0.000000,,2013-09-27 01:52:00,
2013-09-26 22:01:00,50.0,48.0,-100.00,ESE,104,0.0,0.0,94,0.00,,,0.00,0.000000,,2013-09-27 02:01:00,
2013-09-26 22:22:00,50.0,48.0,-100.00,ESE,104,0.0,0.0,94,0.00,,,0.00,0.000000,,2013-09-27 02:22:00,
2013-09-26 22:32:00,50.0,48.0,-100.00,ESE,104,0.0,0.0,94,0.00,,,0.00,0.000000,,2013-09-27 02:32:00,
2013-09-26 22:43:00,50.0,48.0,-100.00,ESE,104,0.0,0.0,94,0.00,,,0.00,0.000000,,2013-09-27 02:43:00,
2013-09-26 22:53:00,50.0,48.0,-100.00,ESE,104,0.0,0.0,94,0.00,,,0.00,0.000000,,2013-09-27 02:53:00,
2013-09-26 23:01:00,49.0,48.0,-100.00,ESE,103,0.0,0.0,95,0.00,,,0.00,0.000000,,2013-09-27 03:01:00,
2013-09-26 23:45:00,49.0,48.0,-100.00,ESE,103,0.0,0.0,95,0.00,,,0.00,0.000000,,2013-09-27 03:45:00,
2013-09-26 23:55:00,49.0,48.0,-100.00,ESE,103,0.0,0.0,95,0.00,,,0.00,0.000000,,2013-09-27 03:55:00,